Farnham, Ohio
Current Conditions -  °F | °C
As of 11:53 AM on Friday 21 Nov 2014 (Local Time) from KHZY Reporting Station
Overcast Overcast  
Wind Chill: 14°   Ceiling: 3800
Heat Index: 24°   Visibility: 10mi
Dew Point: 10°   Wind: 9mph
Humidity: 55%   Direction: 290°WNW
Pressure: 30.44"   Gusts: NA
Location:  41.8949°N, 80.5816°W
Report Text: KHZY 211653Z AUTO 29008KT 10SM OVC038 M04/M12 A3044 RMK AO2 SLP323 T10441122
Loading
Personal Weather Stations






























Interactive Weather Map New forecast layout! Learn more

10-Day Weather Forecast

Advertisements
Track Severe Weather on mobile